PWSweather.com
Personal Weather Stations
Station Observations
WISCHPK61
Green Bay Schmitt Park, Green Bay, WI 54311

Green Bay Schmitt ParkGreen Bay, WI 54311

Lat: 44.514277, Lon: -87.935067

Elevation: 735

Station Type: Acu Rite Pro Weather Center model 02032C

http://greenbayweathercam.com

High Low Average
Temperature 30.0°F-1.1°C 4.5°F-15.3°C 14.1°F-9.9°C
Dew Point 29.8°F-1.2°C 4.1°F-15.5°C 13.5°F-10.3°C
Winds Calm Calm Calm Calm Calm SWCalm SW
Wind Gusts -- -- --
Humidity 99% 77% 97%
Pressure 29.48 in998.3 mb 29.35 in993.9 mb -
Precipitation 0.00 in0.0 mm - -
Hour Temp Dew Point Humidity Winds Wind Gusts Pressure Precip Precip Rate Daily Precip Total
12:00 AM 14.4°F-9.8°C 13.9°F-10.1°C 98% Calm Calm -- 29.34 in993.6 mb - 0.00 in0.0 mm 0.00 in0.0 mm
01:00 AM 12.0°F-11.1°C 10.8°F-11.8°C 95% Calm Calm -- 29.35 in993.9 mb - 0.00 in0.0 mm 0.00 in0.0 mm
02:00 AM 10.6°F-11.9°C 10.4°F-12.0°C 99% Calm Calm -- 29.35 in993.9 mb - 0.00 in0.0 mm 0.00 in0.0 mm
03:00 AM 8.4°F-13.1°C 8.2°F-13.2°C 99% Calm Calm -- 29.38 in994.9 mb - 0.00 in0.0 mm 0.00 in0.0 mm
04:00 AM 7.3°F-13.7°C 7.1°F-13.8°C 99% Calm Calm -- 29.40 in995.6 mb - 0.00 in0.0 mm 0.00 in0.0 mm
05:00 AM 7.5°F-13.6°C 6.4°F-14.2°C 95% Calm Calm -- 29.42 in996.3 mb - 0.00 in0.0 mm 0.00 in0.0 mm
06:00 AM 7.0°F-13.9°C 6.8°F-14.0°C 99% Calm Calm -- 29.42 in996.3 mb - 0.00 in0.0 mm 0.00 in0.0 mm
07:00 AM 6.8°F-14.0°C 6.4°F-14.2°C 98% Calm Calm -- 29.43 in996.6 mb - 0.00 in0.0 mm 0.00 in0.0 mm
08:00 AM 4.5°F-15.3°C 4.1°F-15.5°C 98% Calm Calm -- 29.43 in996.6 mb - 0.00 in0.0 mm 0.00 in0.0 mm
09:00 AM 6.6°F-14.1°C 6.4°F-14.2°C 99% Calm Calm -- 29.42 in996.3 mb - 0.00 in0.0 mm 0.00 in0.0 mm
10:00 AM 11.7°F-11.3°C 11.0°F-11.7°C 97% Calm Calm -- 29.44 in997.0 mb - 0.00 in0.0 mm 0.00 in0.0 mm
11:00 AM 18.8°F-7.3°C 18.4°F-7.6°C 98% Calm Calm -- 29.46 in997.6 mb - 0.00 in0.0 mm 0.00 in0.0 mm
12:00 PM 21.2°F-6.0°C 21.0°F-6.1°C 99% Calm Calm -- 29.48 in998.3 mb - 0.00 in0.0 mm 0.00 in0.0 mm
01:00 PM 29.7°F-1.3°C 29.5°F-1.4°C 99% Calm Calm -- 29.46 in997.6 mb - 0.00 in0.0 mm 0.00 in0.0 mm
02:00 PM 26.6°F-3.0°C 26.1°F-3.3°C 98% Calm Calm -- 29.45 in997.3 mb - 0.00 in0.0 mm 0.00 in0.0 mm
03:00 PM 30.0°F-1.1°C 29.8°F-1.2°C 99% Calm Calm -- 29.43 in996.6 mb - 0.00 in0.0 mm 0.00 in0.0 mm
04:00 PM 27.6°F-2.4°C 27.4°F-2.6°C 99% Calm Calm -- 29.41 in995.9 mb - 0.00 in0.0 mm 0.00 in0.0 mm
06:00 PM 19.4°F-7.0°C 19.2°F-7.1°C 99% Calm Calm -- 29.40 in995.6 mb - 0.00 in0.0 mm 0.00 in0.0 mm
07:00 PM 14.6°F-9.7°C 8.7°F-12.9°C 77% Calm Calm -- 29.42 in996.3 mb - 0.00 in0.0 mm 0.00 in0.0 mm
08:00 PM 11.8°F-11.2°C 11.6°F-11.3°C 99% Calm Calm -- 29.43 in996.6 mb - 0.00 in0.0 mm 0.00 in0.0 mm
09:00 PM 10.8°F-11.8°C 10.6°F-11.9°C 99% Calm Calm -- 29.42 in996.3 mb - 0.00 in0.0 mm 0.00 in0.0 mm
10:00 PM 10.4°F-12.0°C 10.2°F-12.1°C 99% Calm Calm -- 29.41 in995.9 mb - 0.00 in0.0 mm 0.00 in0.0 mm
11:00 PM 11.8°F-11.2°C 11.6°F-11.3°C 99% Calm Calm -- 29.38 in994.9 mb - 0.00 in0.0 mm 0.00 in0.0 mm